Time;durP1;ratioP1;P1;durP2;ratioP2;P2;SDS_P1;SDS_P2;PMS_P1;PMS_P2;Temp;Humidity;BMP_temperature;BMP_pressure;BME280_temperature;BME280_humidity;BME280_pressure;Samples;Min_cycle;Max_cycle;Signal;HPM_P1;HPM_P2
2022/06/18 00:01:35;;;;;;;0.85;0.85;;;;;;;;;;5015849;23;20256;-77
2022/06/18 00:04:05;;;;;;;0.63;0.63;;;;;;;;;;4996612;28;20287;-77
2022/06/18 00:06:39;;;;;;;0.50;0.50;;;;;;;;;;4996917;28;20258;-77
2022/06/18 00:09:07;;;;;;;0.60;0.60;;;;;;;;;;4996407;28;20207;-78
2022/06/18 00:14:20;;;;;;;0.65;0.65;;;;;;;;;;4996375;28;20206;-77
2022/06/18 00:16:48;;;;;;;1.42;1.35;;;;;;;;;;4996873;28;20258;-78
2022/06/18 00:19:15;;;;;;;0.70;0.70;;;;;;;;;;4995236;28;20298;-79
2022/06/18 00:21:44;;;;;;;0.70;0.70;;;;;;;;;;4995511;28;20314;-79
2022/06/18 00:24:19;;;;;;;0.75;0.75;;;;;;;;;;4996783;28;20275;-78
2022/06/18 00:26:48;;;;;;;0.82;0.82;;;;;;;;;;4996311;28;20239;-78
2022/06/18 00:29:19;;;;;;;0.70;0.70;;;;;;;;;;4995674;28;20679;-79
2022/06/18 00:31:47;;;;;;;0.70;0.70;;;;;;;;;;4987937;28;20311;-77
2022/06/18 00:34:15;;;;;;;0.77;0.77;;;;;;;;;;4976611;28;20201;-79
2022/06/18 00:36:44;;;;;;;0.50;0.50;;;;;;;;;;4976509;28;20329;-79
2022/06/18 00:39:17;;;;;;;0.70;0.70;;;;;;;;;;4976545;28;20215;-77
2022/06/18 00:41:47;;;;;;;0.73;0.73;;;;;;;;;;4975476;28;20664;-78
2022/06/18 00:44:27;;;;;;;0.90;0.90;;;;;;;;;;4975497;28;20314;-79
2022/06/18 00:47:07;;;;;;;0.60;0.60;;;;;;;;;;4976348;28;20204;-78
2022/06/18 00:49:38;;;;;;;0.70;0.70;;;;;;;;;;4976412;28;20208;-77
2022/06/18 00:52:11;;;;;;;0.60;0.60;;;;;;;;;;4975893;28;20224;-79
2022/06/18 00:54:44;;;;;;;0.73;0.73;;;;;;;;;;4976242;28;20276;-80
2022/06/18 00:57:16;;;;;;;0.73;0.73;;;;;;;;;;4976140;28;20308;-77
2022/06/18 00:59:48;;;;;;;0.70;0.70;;;;;;;;;;4976169;28;20215;-80
2022/06/18 01:02:29;;;;;;;0.70;0.70;;;;;;;;;;4974967;28;20673;-80
2022/06/18 01:04:57;;;;;;;0.85;0.85;;;;;;;;;;4975806;28;20291;-78
2022/06/18 01:07:31;;;;;;;0.65;0.65;;;;;;;;;;4975557;28;20295;-80
2022/06/18 01:09:59;;;;;;;1.13;1.05;;;;;;;;;;4975225;28;20208;-78
2022/06/18 01:12:27;;;;;;;0.90;0.90;;;;;;;;;;4975061;28;20320;-77
2022/06/18 01:15:01;;;;;;;0.77;0.77;;;;;;;;;;4975245;28;20684;-78
2022/06/18 01:17:29;;;;;;;0.80;0.80;;;;;;;;;;4980497;28;20207;-78
2022/06/18 01:19:59;;;;;;;0.60;0.60;;;;;;;;;;4982306;28;20295;-78
2022/06/18 01:22:41;;;;;;;0.60;0.60;;;;;;;;;;4980565;28;20256;-78
2022/06/18 01:25:10;;;;;;;1.45;0.80;;;;;;;;;;4975495;28;20319;-80
2022/06/18 01:27:39;;;;;;;0.80;0.80;;;;;;;;;;4975642;28;20296;-79
2022/06/18 01:30:09;;;;;;;0.73;0.73;;;;;;;;;;4975410;28;20295;-79
2022/06/18 01:32:37;;;;;;;0.73;0.73;;;;;;;;;;4974449;28;20287;-79
2022/06/18 01:35:06;;;;;;;0.82;0.82;;;;;;;;;;4975133;28;20299;-80
2022/06/18 01:37:34;;;;;;;0.70;0.70;;;;;;;;;;4974579;28;20200;-79
2022/06/18 01:40:02;;;;;;;0.90;0.90;;;;;;;;;;4974526;28;20630;-78
2022/06/18 01:42:37;;;;;;;2.05;0.98;;;;;;;;;;4974152;28;20311;-79
2022/06/18 01:45:08;;;;;;;0.98;0.98;;;;;;;;;;4974729;28;20214;-78
2022/06/18 01:47:40;;;;;;;0.82;0.82;;;;;;;;;;4975079;28;20299;-80
2022/06/18 01:50:14;;;;;;;1.13;1.08;;;;;;;;;;4974858;28;20354;-77
2022/06/18 01:52:47;;;;;;;1.30;1.17;;;;;;;;;;4974107;28;20220;-79
2022/06/18 01:55:18;;;;;;;1.65;1.55;;;;;;;;;;4974795;28;20214;-78
2022/06/18 01:57:53;;;;;;;1.30;1.25;;;;;;;;;;4974220;28;20299;-78
2022/06/18 02:00:27;;;;;;;0.82;0.82;;;;;;;;;;4974131;28;20298;-79
2022/06/18 02:02:55;;;;;;;1.00;1.00;;;;;;;;;;4973747;28;20410;-78
2022/06/18 02:05:23;;;;;;;1.02;1.02;;;;;;;;;;4974384;28;20685;-78
2022/06/18 02:07:52;;;;;;;0.80;0.80;;;;;;;;;;4974401;28;20626;-78
2022/06/18 02:10:22;;;;;;;0.80;0.80;;;;;;;;;;4973538;28;20245;-80
2022/06/18 02:12:52;;;;;;;0.90;0.90;;;;;;;;;;4973701;28;20206;-77
2022/06/18 02:15:23;;;;;;;0.80;0.80;;;;;;;;;;4973948;28;20204;-79
2022/06/18 02:17:50;;;;;;;0.98;0.98;;;;;;;;;;4972655;28;20295;-78
2022/06/18 02:20:25;;;;;;;0.80;0.80;;;;;;;;;;4974532;28;20291;-79
2022/06/18 02:22:56;;;;;;;0.90;0.90;;;;;;;;;;4973832;28;20203;-78
2022/06/18 02:25:27;;;;;;;0.82;0.70;;;;;;;;;;4974514;28;20299;-79
2022/06/18 02:27:58;;;;;;;0.90;0.90;;;;;;;;;;4974386;28;20295;-78
2022/06/18 02:30:30;;;;;;;1.00;1.00;;;;;;;;;;4973976;28;20291;-79
2022/06/18 02:33:14;;;;;;;0.88;0.88;;;;;;;;;;4973456;28;20579;-78
2022/06/18 02:35:42;;;;;;;0.98;0.80;;;;;;;;;;4974095;28;20210;-80
2022/06/18 02:38:17;;;;;;;1.38;1.38;;;;;;;;;;4974224;28;20628;-77
2022/06/18 02:40:45;;;;;;;0.73;0.73;;;;;;;;;;4974055;28;20310;-77
2022/06/18 02:43:15;;;;;;;0.70;0.70;;;;;;;;;;4973497;28;20652;-79
2022/06/18 02:45:43;;;;;;;0.90;0.90;;;;;;;;;;4975706;28;20210;-79
2022/06/18 02:48:11;;;;;;;0.90;0.90;;;;;;;;;;4974056;28;20210;-78
2022/06/18 02:50:40;;;;;;;0.98;0.98;;;;;;;;;;4974804;28;20355;-78
2022/06/18 02:53:10;;;;;;;0.75;0.75;;;;;;;;;;4973702;28;20211;-78
2022/06/18 02:55:40;;;;;;;0.77;0.77;;;;;;;;;;4974042;28;20290;-79
2022/06/18 02:58:18;;;;;;;1.00;1.00;;;;;;;;;;4973866;28;20658;-78
2022/06/18 03:00:51;;;;;;;0.60;0.60;;;;;;;;;;4973873;28;20240;-77
2022/06/18 03:03:19;;;;;;;0.68;0.68;;;;;;;;;;4973343;28;20239;-79
2022/06/18 03:05:47;;;;;;;1.00;1.00;;;;;;;;;;4973801;28;20200;-79
2022/06/18 03:08:15;;;;;;;0.80;0.80;;;;;;;;;;4973702;28;20264;-78
2022/06/18 03:13:30;;;;;;;1.05;0.90;;;;;;;;;;4976816;28;20212;-77
2022/06/18 03:15:58;;;;;;;0.65;0.65;;;;;;;;;;4976641;28;20287;-79
2022/06/18 03:18:29;;;;;;;1.00;1.00;;;;;;;;;;4976399;28;20588;-78
2022/06/18 03:21:06;;;;;;;0.90;0.90;;;;;;;;;;4977801;28;20315;-78
2022/06/18 03:23:34;;;;;;;0.77;0.77;;;;;;;;;;4977563;28;20207;-78
2022/06/18 03:26:01;;;;;;;0.95;0.95;;;;;;;;;;4977287;28;20295;-80
2022/06/18 03:28:30;;;;;;;0.90;0.90;;;;;;;;;;4977383;28;20298;-78
2022/06/18 03:30:58;;;;;;;0.88;0.88;;;;;;;;;;4977448;28;20314;-78
2022/06/18 03:33:25;;;;;;;0.73;0.60;;;;;;;;;;4976777;28;20299;-79
2022/06/18 03:35:54;;;;;;;0.90;0.90;;;;;;;;;;4977012;28;20299;-78
2022/06/18 03:38:22;;;;;;;0.90;0.90;;;;;;;;;;4977194;28;20769;-78
2022/06/18 03:40:51;;;;;;;0.90;0.90;;;;;;;;;;4977314;28;20259;-80
2022/06/18 03:43:20;;;;;;;0.80;0.80;;;;;;;;;;4976590;28;20204;-77
2022/06/18 03:45:52;;;;;;;1.00;1.00;;;;;;;;;;4976863;28;20224;-77
2022/06/18 03:48:23;;;;;;;0.70;0.70;;;;;;;;;;4977065;28;20291;-78
2022/06/18 03:50:51;;;;;;;0.93;0.90;;;;;;;;;;4977302;28;20252;-78
2022/06/18 03:53:19;;;;;;;1.00;1.00;;;;;;;;;;4974643;28;20291;-77
2022/06/18 03:55:47;;;;;;;0.80;0.80;;;;;;;;;;4978277;28;20291;-78
2022/06/18 03:58:15;;;;;;;0.80;0.80;;;;;;;;;;4977949;28;20213;-78
2022/06/18 04:00:43;;;;;;;1.02;0.93;;;;;;;;;;4977177;28;20236;-78
2022/06/18 04:03:12;;;;;;;1.25;1.15;;;;;;;;;;4976338;28;20247;-78
2022/06/18 04:05:41;;;;;;;1.70;1.30;;;;;;;;;;4976848;28;20679;-77
2022/06/18 04:08:10;;;;;;;1.70;1.05;;;;;;;;;;4977479;28;20736;-78
2022/06/18 04:10:37;;;;;;;1.17;1.13;;;;;;;;;;4977304;28;20201;-78
2022/06/18 04:13:05;;;;;;;1.67;1.33;;;;;;;;;;4977400;28;20724;-77
2022/06/18 04:15:32;;;;;;;1.50;1.40;;;;;;;;;;4977482;28;20291;-78
2022/06/18 04:18:00;;;;;;;1.63;1.52;;;;;;;;;;4976987;28;20239;-78
2022/06/18 04:20:32;;;;;;;1.40;1.30;;;;;;;;;;4976330;28;20292;-78
2022/06/18 04:22:59;;;;;;;1.17;1.08;;;;;;;;;;4975877;28;20215;-78
2022/06/18 04:25:27;;;;;;;1.60;1.50;;;;;;;;;;4976866;28;20658;-77
2022/06/18 04:27:57;;;;;;;4.20;1.45;;;;;;;;;;4976364;28;20255;-78
2022/06/18 04:30:26;;;;;;;1.50;1.40;;;;;;;;;;4975908;28;20235;-77
2022/06/18 04:32:54;;;;;;;1.60;1.50;;;;;;;;;;4975193;28;20669;-78
2022/06/18 04:35:22;;;;;;;1.80;1.70;;;;;;;;;;4976006;28;20200;-77
2022/06/18 04:37:51;;;;;;;1.77;1.65;;;;;;;;;;4976235;28;20242;-78
2022/06/18 04:40:22;;;;;;;1.48;1.38;;;;;;;;;;4978368;28;20232;-79
2022/06/18 04:42:50;;;;;;;1.13;1.08;;;;;;;;;;4975901;28;20231;-78
2022/06/18 04:45:17;;;;;;;1.40;1.30;;;;;;;;;;4975700;28;20311;-78
2022/06/18 04:47:45;;;;;;;1.67;1.58;;;;;;;;;;4975820;28;20325;-78
2022/06/18 04:50:23;;;;;;;1.60;1.50;;;;;;;;;;4975347;28;20300;-77
2022/06/18 04:52:51;;;;;;;2.00;1.42;;;;;;;;;;4975278;28;20208;-77
2022/06/18 04:55:19;;;;;;;1.10;1.10;;;;;;;;;;4975617;28;20291;-77
2022/06/18 04:57:47;;;;;;;1.15;1.13;;;;;;;;;;4975339;28;20207;-78
2022/06/18 05:00:16;;;;;;;1.38;1.30;;;;;;;;;;4975562;28;20231;-78
2022/06/18 05:02:44;;;;;;;1.60;1.50;;;;;;;;;;4975186;28;20252;-78
2022/06/18 05:05:16;;;;;;;1.40;1.27;;;;;;;;;;4975654;28;20315;-78
2022/06/18 05:07:44;;;;;;;1.30;1.20;;;;;;;;;;4975822;28;20295;-78
2022/06/18 05:10:13;;;;;;;1.33;1.20;;;;;;;;;;4974669;28;20208;-78
2022/06/18 05:12:42;;;;;;;1.65;1.23;;;;;;;;;;4974695;28;20316;-77
2022/06/18 05:15:12;;;;;;;1.38;1.27;;;;;;;;;;4975139;28;20208;-80
2022/06/18 05:17:44;;;;;;;1.63;1.52;;;;;;;;;;4975264;28;20677;-79
2022/06/18 05:20:15;;;;;;;1.83;1.50;;;;;;;;;;4975919;28;20212;-81
2022/06/18 05:22:42;;;;;;;1.27;1.17;;;;;;;;;;4975305;28;20509;-79
2022/06/18 05:25:13;;;;;;;1.17;1.13;;;;;;;;;;4975141;28;20436;-79
2022/06/18 05:27:40;;;;;;;1.75;1.65;;;;;;;;;;4975724;28;20214;-80
2022/06/18 05:30:13;;;;;;;1.17;1.17;;;;;;;;;;4975404;28;20228;-80
2022/06/18 05:32:40;;;;;;;1.27;1.20;;;;;;;;;;4974043;28;20720;-79
2022/06/18 05:35:09;;;;;;;1.17;1.10;;;;;;;;;;4975365;28;20243;-79
2022/06/18 05:37:37;;;;;;;1.50;1.40;;;;;;;;;;4974983;28;20249;-78
2022/06/18 05:40:06;;;;;;;1.38;1.27;;;;;;;;;;4975644;28;20214;-78
2022/06/18 05:42:35;;;;;;;1.23;1.05;;;;;;;;;;4975293;28;20335;-80
2022/06/18 05:45:03;;;;;;;1.20;1.20;;;;;;;;;;4975470;28;20725;-80
2022/06/18 05:47:33;;;;;;;2.35;1.10;;;;;;;;;;4975825;28;20239;-81
2022/06/18 05:50:01;;;;;;;1.10;1.10;;;;;;;;;;4976207;28;20232;-80
2022/06/18 05:52:30;;;;;;;1.00;1.00;;;;;;;;;;4975315;28;20251;-81
2022/06/18 05:54:58;;;;;;;1.48;1.35;;;;;;;;;;4976086;28;20665;-80
2022/06/18 05:57:25;;;;;;;1.50;1.40;;;;;;;;;;4975893;28;20683;-80
2022/06/18 05:59:54;;;;;;;2.03;1.30;;;;;;;;;;4975675;28;20272;-80
2022/06/18 06:04:51;;;;;;;1.20;1.20;;;;;;;;;;5012894;28;20559;-83
2022/06/18 06:07:21;;;;;;;1.60;1.50;;;;;;;;;;5013770;28;20254;-81
2022/06/18 06:12:45;;;;;;;1.40;1.30;;;;;;;;;;4952099;28;20701;-83
2022/06/18 06:15:14;;;;;;;1.40;1.20;;;;;;;;;;4998296;28;20238;-82
2022/06/18 06:17:42;;;;;;;1.55;1.40;;;;;;;;;;5012419;28;20249;-85
2022/06/18 06:20:28;;;;;;;1.35;1.25;;;;;;;;;;5012907;28;20242;-83
2022/06/18 06:22:56;;;;;;;1.35;1.27;;;;;;;;;;5012756;28;20262;-82
2022/06/18 06:25:23;;;;;;;1.15;1.10;;;;;;;;;;5013844;28;20211;-83
2022/06/18 06:27:51;;;;;;;1.50;1.40;;;;;;;;;;5013506;28;20648;-81
2022/06/18 06:30:20;;;;;;;1.38;1.27;;;;;;;;;;5013749;28;20239;-84
2022/06/18 06:32:48;;;;;;;2.42;1.63;;;;;;;;;;5013059;28;20233;-83
2022/06/18 06:35:16;;;;;;;1.42;1.15;;;;;;;;;;5013664;28;20600;-82
2022/06/18 06:37:44;;;;;;;1.05;1.05;;;;;;;;;;5013215;28;20242;-84
2022/06/18 06:40:14;;;;;;;1.00;1.00;;;;;;;;;;5013793;28;20202;-84
2022/06/18 06:42:44;;;;;;;1.15;0.90;;;;;;;;;;5013089;28;20227;-84
2022/06/18 06:45:18;;;;;;;1.10;1.10;;;;;;;;;;5013455;28;20230;-83
2022/06/18 06:47:47;;;;;;;1.45;1.38;;;;;;;;;;5013007;28;20227;-83
2022/06/18 06:50:18;;;;;;;1.45;1.35;;;;;;;;;;5013327;28;20207;-84
2022/06/18 06:52:48;;;;;;;0.90;0.90;;;;;;;;;;5012311;28;20304;-84
2022/06/18 06:58:06;;;;;;;0.90;0.90;;;;;;;;;;5013177;28;20197;-84
2022/06/18 07:00:36;;;;;;;1.30;1.20;;;;;;;;;;5012584;28;20237;-84
2022/06/18 07:03:05;;;;;;;0.90;0.90;;;;;;;;;;5011525;28;20723;-82
2022/06/18 07:05:33;;;;;;;0.90;0.90;;;;;;;;;;5012578;28;20226;-82
2022/06/18 07:08:00;;;;;;;1.67;1.58;;;;;;;;;;5012040;28;20265;-83
2022/06/18 07:10:28;;;;;;;1.30;1.30;;;;;;;;;;5011373;28;20289;-83
2022/06/18 07:12:55;;;;;;;1.17;1.17;;;;;;;;;;5011608;28;20738;-83
2022/06/18 07:15:23;;;;;;;1.50;1.40;;;;;;;;;;5011140;28;20245;-84
2022/06/18 07:17:50;;;;;;;1.35;1.25;;;;;;;;;;5011086;28;20231;-82
2022/06/18 07:20:22;;;;;;;0.90;0.90;;;;;;;;;;5013402;28;20226;-83
2022/06/18 07:22:50;;;;;;;0.95;0.90;;;;;;;;;;5012248;28;20227;-82
2022/06/18 07:25:17;;;;;;;1.55;0.90;;;;;;;;;;5012421;28;20294;-83
2022/06/18 07:27:45;;;;;;;1.77;1.00;;;;;;;;;;5012248;28;20265;-83
2022/06/18 07:30:14;;;;;;;1.55;1.45;;;;;;;;;;5012860;28;20667;-83
2022/06/18 07:32:47;;;;;;;1.20;1.10;;;;;;;;;;5011716;28;20265;-83
2022/06/18 07:35:23;;;;;;;1.85;1.25;;;;;;;;;;5013099;28;20237;-83
2022/06/18 07:37:51;;;;;;;1.25;1.15;;;;;;;;;;5013697;28;20203;-82
2022/06/18 07:40:19;;;;;;;1.70;1.48;;;;;;;;;;5013759;28;20242;-83
2022/06/18 07:42:48;;;;;;;1.20;1.20;;;;;;;;;;5013553;28;20322;-84
2022/06/18 07:45:18;;;;;;;1.30;1.30;;;;;;;;;;5013606;28;20199;-84
2022/06/18 07:47:46;;;;;;;1.10;1.10;;;;;;;;;;5014217;28;20251;-84
2022/06/18 07:50:14;;;;;;;1.38;1.38;;;;;;;;;;5013252;28;20205;-82
2022/06/18 07:52:44;;;;;;;1.00;1.00;;;;;;;;;;5012681;28;20287;-83
2022/06/18 07:55:15;;;;;;;1.02;1.02;;;;;;;;;;5014068;28;20203;-83
2022/06/18 07:57:43;;;;;;;1.55;1.20;;;;;;;;;;5016905;28;20675;-83
2022/06/18 08:00:13;;;;;;;1.23;1.20;;;;;;;;;;5017215;28;20603;-83
2022/06/18 08:02:42;;;;;;;1.42;1.30;;;;;;;;;;5016004;28;20703;-83
2022/06/18 08:05:12;;;;;;;1.33;1.23;;;;;;;;;;5017873;28;20231;-82
2022/06/18 08:07:40;;;;;;;1.30;1.20;;;;;;;;;;5017562;28;20258;-83
2022/06/18 08:10:10;;;;;;;1.15;1.15;;;;;;;;;;5016036;28;20258;-81
2022/06/18 08:12:37;;;;;;;1.63;1.25;;;;;;;;;;5016035;28;20599;-83
2022/06/18 08:15:07;;;;;;;1.15;1.15;;;;;;;;;;5017872;28;20290;-83
2022/06/18 08:17:35;;;;;;;1.30;1.30;;;;;;;;;;5016441;28;20237;-83
2022/06/18 08:20:03;;;;;;;1.70;1.60;;;;;;;;;;5016943;28;20199;-84
2022/06/18 08:22:31;;;;;;;1.55;1.45;;;;;;;;;;5017042;28;20223;-84
2022/06/18 08:24:59;;;;;;;1.85;1.75;;;;;;;;;;5016729;28;20234;-83
2022/06/18 08:27:28;;;;;;;1.60;1.50;;;;;;;;;;5016905;28;20227;-83
2022/06/18 08:29:57;;;;;;;1.30;1.20;;;;;;;;;;5017192;28;20625;-84
2022/06/18 08:32:24;;;;;;;1.38;1.27;;;;;;;;;;5016039;28;20261;-85
2022/06/18 08:34:51;;;;;;;1.48;1.38;;;;;;;;;;5017115;28;20282;-83
2022/06/18 08:37:19;;;;;;;1.30;1.30;;;;;;;;;;5015684;28;20222;-81
2022/06/18 08:39:47;;;;;;;1.20;1.20;;;;;;;;;;5017350;28;20691;-84
2022/06/18 08:42:40;;;;;;;1.30;1.30;;;;;;;;;;5016390;28;20657;-83
2022/06/18 08:45:20;;;;;;;2.00;1.90;;;;;;;;;;5016209;28;20237;-82
2022/06/18 08:48:11;;;;;;;2.25;1.42;;;;;;;;;;5015057;28;20226;-83
2022/06/18 08:50:56;;;;;;;2.20;1.40;;;;;;;;;;5016511;28;20246;-82
2022/06/18 08:53:47;;;;;;;1.30;1.20;;;;;;;;;;5013905;28;20206;-83
2022/06/18 08:56:19;;;;;;;1.48;1.38;;;;;;;;;;5014923;28;20239;-82
2022/06/18 08:58:57;;;;;;;1.85;1.40;;;;;;;;;;5014980;28;20227;-83
2022/06/18 09:01:28;;;;;;;1.25;1.23;;;;;;;;;;5014753;28;20237;-83
2022/06/18 09:04:09;;;;;;;1.20;1.10;;;;;;;;;;5013610;28;20658;-82
2022/06/18 09:07:20;;;;;;;1.10;1.10;;;;;;;;;;5014828;28;20234;-82
2022/06/18 09:09:54;;;;;;;1.60;1.50;;;;;;;;;;5009515;28;20257;-81
2022/06/18 09:12:25;;;;;;;1.38;1.38;;;;;;;;;;5013149;28;20258;-82
2022/06/18 09:14:58;;;;;;;1.67;1.20;;;;;;;;;;5014335;28;20199;-82
2022/06/18 09:17:31;;;;;;;1.30;1.20;;;;;;;;;;5012432;28;20226;-82
2022/06/18 09:20:04;;;;;;;1.30;1.30;;;;;;;;;;5013996;28;20242;-82
2022/06/18 09:22:34;;;;;;;1.10;1.10;;;;;;;;;;5013004;28;20317;-83
2022/06/18 09:25:08;;;;;;;1.30;1.20;;;;;;;;;;5013714;28;20208;-82
2022/06/18 09:27:41;;;;;;;1.75;1.60;;;;;;;;;;5013877;28;20706;-83
2022/06/18 09:30:16;;;;;;;2.15;2.05;;;;;;;;;;5013799;28;20229;-82
2022/06/18 09:32:48;;;;;;;1.73;1.63;;;;;;;;;;5013086;28;20741;-83
2022/06/18 09:35:24;;;;;;;1.73;1.63;;;;;;;;;;5013612;28;20206;-83
2022/06/18 09:37:56;;;;;;;1.38;1.27;;;;;;;;;;5013507;28;20238;-84
2022/06/18 09:40:31;;;;;;;1.42;1.33;;;;;;;;;;5013528;28;20249;-83
2022/06/18 09:43:08;;;;;;;1.52;1.45;;;;;;;;;;5012767;28;20249;-83
2022/06/18 09:45:43;;;;;;;3.67;1.70;;;;;;;;;;5013323;28;20659;-83
2022/06/18 09:48:12;;;;;;;1.40;1.30;;;;;;;;;;5013431;28;20232;-83
2022/06/18 09:50:46;;;;;;;1.40;1.35;;;;;;;;;;5013486;28;20206;-82
2022/06/18 09:53:18;;;;;;;2.10;2.00;;;;;;;;;;5013056;28;20205;-83
2022/06/18 09:55:50;;;;;;;1.27;1.27;;;;;;;;;;5013238;28;20202;-82
2022/06/18 09:58:22;;;;;;;2.83;2.03;;;;;;;;;;5013384;28;20561;-84
2022/06/18 10:00:53;;;;;;;1.70;1.60;;;;;;;;;;5013596;28;20588;-83
2022/06/18 10:08:59;;;;;;;1.83;1.73;;;;;;;;;;5013741;28;20229;-83
2022/06/18 10:11:27;;;;;;;2.22;1.75;;;;;;;;;;5013319;28;20280;-82
2022/06/18 10:14:00;;;;;;;1.77;1.67;;;;;;;;;;5012163;28;20230;-83
2022/06/18 10:16:38;;;;;;;2.08;1.80;;;;;;;;;;5013006;28;20249;-82
2022/06/18 10:19:14;;;;;;;2.28;1.60;;;;;;;;;;5011343;28;20202;-83
2022/06/18 10:21:47;;;;;;;1.85;1.75;;;;;;;;;;5012135;28;20261;-83
2022/06/18 10:24:21;;;;;;;1.73;1.63;;;;;;;;;;5012260;28;20632;-84
2022/06/18 10:26:56;;;;;;;1.73;1.63;;;;;;;;;;5012619;28;20256;-82
2022/06/18 10:29:33;;;;;;;2.00;1.90;;;;;;;;;;5012661;28;20316;-83
2022/06/18 10:32:17;;;;;;;1.70;1.60;;;;;;;;;;5011839;28;20764;-83
2022/06/18 10:35:03;;;;;;;2.97;2.20;;;;;;;;;;4992757;28;20289;-82
2022/06/18 10:37:42;;;;;;;2.00;1.90;;;;;;;;;;4993286;28;20227;-83
2022/06/18 10:40:19;;;;;;;1.60;1.50;;;;;;;;;;4993049;28;20237;-83
2022/06/18 10:43:02;;;;;;;2.08;1.88;;;;;;;;;;4992576;28;20234;-85
2022/06/18 10:45:35;;;;;;;1.90;1.80;;;;;;;;;;4994099;28;20202;-84
2022/06/18 10:48:10;;;;;;;2.78;1.83;;;;;;;;;;4993318;28;20207;-82
2022/06/18 10:50:45;;;;;;;2.42;1.73;;;;;;;;;;4993344;28;20632;-83
2022/06/18 10:53:16;;;;;;;1.85;1.75;;;;;;;;;;4992905;28;20233;-83
2022/06/18 10:55:45;;;;;;;1.67;1.58;;;;;;;;;;4993714;28;20245;-82
2022/06/18 10:58:16;;;;;;;2.05;1.83;;;;;;;;;;4993731;28;20206;-83
2022/06/18 11:00:57;;;;;;;1.95;1.67;;;;;;;;;;4993797;28;20239;-84
2022/06/18 11:03:30;;;;;;;2.20;1.95;;;;;;;;;;5001950;28;20246;-84
2022/06/18 11:05:58;;;;;;;3.42;2.33;;;;;;;;;;5013798;28;20226;-83
2022/06/18 11:08:29;;;;;;;3.53;2.50;;;;;;;;;;5012878;28;20706;-82
2022/06/18 11:11:01;;;;;;;1.70;1.60;;;;;;;;;;5012541;28;20241;-84
2022/06/18 11:13:35;;;;;;;2.10;2.00;;;;;;;;;;5012268;28;20702;-83
2022/06/18 11:16:14;;;;;;;2.78;1.90;;;;;;;;;;5012572;28;20249;-84
2022/06/18 11:18:53;;;;;;;2.33;2.13;;;;;;;;;;5011372;28;20578;-84
2022/06/18 11:21:32;;;;;;;2.45;2.25;;;;;;;;;;5013186;28;20599;-86
2022/06/18 11:24:06;;;;;;;2.28;1.95;;;;;;;;;;5013143;28;20287;-82
2022/06/18 11:26:34;;;;;;;2.47;2.28;;;;;;;;;;5012882;28;20206;-83
2022/06/18 11:29:07;;;;;;;3.63;1.88;;;;;;;;;;5011538;28;20609;-84
2022/06/18 11:31:37;;;;;;;2.30;2.17;;;;;;;;;;5014241;28;20229;-83
2022/06/18 11:34:17;;;;;;;2.53;1.95;;;;;;;;;;5016396;28;20240;-84
2022/06/18 11:36:50;;;;;;;2.65;2.15;;;;;;;;;;5015782;28;20208;-83
2022/06/18 11:39:28;;;;;;;2.67;2.47;;;;;;;;;;5016308;28;20308;-84
2022/06/18 11:42:00;;;;;;;1.90;1.80;;;;;;;;;;5014764;28;20740;-83
2022/06/18 11:44:32;;;;;;;1.90;1.70;;;;;;;;;;5015879;28;20234;-83
2022/06/18 11:47:09;;;;;;;2.42;2.22;;;;;;;;;;5015699;28;20285;-84
2022/06/18 11:49:43;;;;;;;2.92;2.10;;;;;;;;;;5015603;28;20253;-84
2022/06/18 11:52:18;;;;;;;1.83;1.73;;;;;;;;;;5014950;28;20253;-83
2022/06/18 11:54:58;;;;;;;2.70;2.45;;;;;;;;;;5015761;28;20212;-84
2022/06/18 11:57:32;;;;;;;1.92;1.83;;;;;;;;;;5017260;28;20209;-82
2022/06/18 12:00:07;;;;;;;1.65;1.60;;;;;;;;;;5015611;28;20226;-83
2022/06/18 12:02:47;;;;;;;1.90;1.80;;;;;;;;;;5026466;23;21388;-80
2022/06/18 12:05:22;;;;;;;3.97;2.20;;;;;;;;;;5000712;28;20213;-79
2022/06/18 12:07:53;;;;;;;2.47;2.28;;;;;;;;;;4999989;28;20683;-80
2022/06/18 12:10:22;;;;;;;2.28;1.73;;;;;;;;;;5000294;28;20198;-80
2022/06/18 12:13:03;;;;;;;2.42;2.22;;;;;;;;;;5004851;28;20240;-81
2022/06/18 12:15:38;;;;;;;2.00;1.90;;;;;;;;;;5018607;28;20198;-81
2022/06/18 12:18:13;;;;;;;3.03;2.13;;;;;;;;;;5018167;28;20594;-80
2022/06/18 12:21:08;;;;;;;2.22;1.98;;;;;;;;;;5019833;28;20226;-81
2022/06/18 12:23:45;;;;;;;2.70;2.50;;;;;;;;;;5018114;28;20226;-81
2022/06/18 12:26:19;;;;;;;2.95;2.47;;;;;;;;;;5017074;28;20206;-81
2022/06/18 12:29:27;;;;;;;2.58;2.28;;;;;;;;;;5018497;28;20556;-81
2022/06/18 12:31:59;;;;;;;2.78;2.35;;;;;;;;;;5011901;28;20238;-81
2022/06/18 12:34:33;;;;;;;2.90;2.22;;;;;;;;;;5019909;28;20233;-81
2022/06/18 12:37:09;;;;;;;1.70;1.60;;;;;;;;;;5017322;28;20313;-81
2022/06/18 12:39:45;;;;;;;1.63;1.52;;;;;;;;;;5018330;28;20671;-81
2022/06/18 12:42:19;;;;;;;2.75;2.00;;;;;;;;;;5018171;28;20237;-81
2022/06/18 12:44:52;;;;;;;7.10;2.67;;;;;;;;;;5018042;28;20241;-81
2022/06/18 12:47:28;;;;;;;3.58;2.00;;;;;;;;;;5016517;28;20592;-81
2022/06/18 12:50:04;;;;;;;2.63;1.90;;;;;;;;;;5016412;28;20209;-81
2022/06/18 12:52:40;;;;;;;3.05;2.45;;;;;;;;;;5017222;28;20257;-81
2022/06/18 12:55:21;;;;;;;2.40;2.10;;;;;;;;;;5017645;28;20233;-83
2022/06/18 12:58:00;;;;;;;1.92;1.83;;;;;;;;;;5017604;28;20576;-83
2022/06/18 13:00:33;;;;;;;1.88;1.60;;;;;;;;;;5016588;28;20652;-83
2022/06/18 13:03:45;;;;;;;3.50;2.00;;;;;;;;;;5016357;28;20265;-83
2022/06/18 13:06:21;;;;;;;4.68;2.10;;;;;;;;;;4968758;28;20268;-83
2022/06/18 13:09:00;;;;;;;2.05;1.80;;;;;;;;;;4996911;28;20203;-81
2022/06/18 13:11:36;;;;;;;7.10;2.60;;;;;;;;;;4997233;28;20199;-81
2022/06/18 13:14:18;;;;;;;2.88;2.20;;;;;;;;;;4996410;28;20257;-81
2022/06/18 13:16:50;;;;;;;2.75;2.13;;;;;;;;;;4996039;28;20250;-80
2022/06/18 13:19:20;;;;;;;2.63;1.77;;;;;;;;;;4997535;28;20564;-81
2022/06/18 13:21:48;;;;;;;3.45;2.20;;;;;;;;;;4996649;28;20229;-81
2022/06/18 13:30:01;;;;;;;1.50;1.40;;;;;;;;;;4996260;28;20214;-81
2022/06/18 13:32:32;;;;;;;2.22;2.03;;;;;;;;;;4995413;28;20309;-81
2022/06/18 13:35:06;;;;;;;3.13;2.05;;;;;;;;;;5008756;28;20245;-81
2022/06/18 13:37:43;;;;;;;2.63;2.40;;;;;;;;;;5015063;28;20241;-81
2022/06/18 13:40:19;;;;;;;3.03;2.38;;;;;;;;;;5015174;28;20225;-81
2022/06/18 13:42:52;;;;;;;2.42;2.10;;;;;;;;;;5013916;28;20280;-81
2022/06/18 13:45:34;;;;;;;2.97;2.13;;;;;;;;;;5015450;28;20301;-81
2022/06/18 13:48:17;;;;;;;1.75;1.65;;;;;;;;;;5015847;28;20206;-81
2022/06/18 13:50:48;;;;;;;2.53;2.30;;;;;;;;;;5015594;28;20230;-79
2022/06/18 13:53:28;;;;;;;1.95;1.80;;;;;;;;;;5014150;28;20745;-81
2022/06/18 13:55:57;;;;;;;2.20;2.10;;;;;;;;;;5015207;28;20245;-81
2022/06/18 13:58:28;;;;;;;2.38;2.17;;;;;;;;;;5014312;28;20768;-80
2022/06/18 14:01:07;;;;;;;2.30;2.05;;;;;;;;;;5014666;28;20226;-80
2022/06/18 14:03:39;;;;;;;2.70;2.50;;;;;;;;;;5014372;28;20257;-81
2022/06/18 14:06:09;;;;;;;1.92;1.83;;;;;;;;;;5014879;28;20234;-81
2022/06/18 14:08:42;;;;;;;3.53;1.92;;;;;;;;;;5014180;28;20199;-81
2022/06/18 14:11:11;;;;;;;2.25;2.05;;;;;;;;;;5014585;28;20237;-81
2022/06/18 14:13:49;;;;;;;3.00;2.65;;;;;;;;;;5012662;28;20226;-80
2022/06/18 14:16:33;;;;;;;3.15;2.38;;;;;;;;;;5014641;28;20308;-80
2022/06/18 14:19:14;;;;;;;2.70;2.03;;;;;;;;;;5012216;28;20204;-79
2022/06/18 14:21:42;;;;;;;2.50;2.15;;;;;;;;;;5013179;28;20222;-81
2022/06/18 14:24:11;;;;;;;2.20;1.88;;;;;;;;;;5014425;28;20309;-80
2022/06/18 14:26:45;;;;;;;3.45;2.05;;;;;;;;;;5014623;28;20608;-81
2022/06/18 14:29:27;;;;;;;2.75;1.98;;;;;;;;;;5013741;28;20206;-81
2022/06/18 14:32:09;;;;;;;1.90;1.80;;;;;;;;;;5013661;28;20248;-81
2022/06/18 14:34:47;;;;;;;4.78;2.45;;;;;;;;;;5013349;28;20210;-81
2022/06/18 14:37:14;;;;;;;3.03;2.30;;;;;;;;;;5013780;28;20225;-81
2022/06/18 14:39:49;;;;;;;2.38;2.17;;;;;;;;;;5012550;28;20288;-80
2022/06/18 14:42:44;;;;;;;1.85;1.70;;;;;;;;;;5011871;28;20291;-80
2022/06/18 14:45:41;;;;;;;4.00;2.30;;;;;;;;;;5012609;28;20238;-81
2022/06/18 14:48:29;;;;;;;4.05;2.30;;;;;;;;;;5012123;28;20298;-80
2022/06/18 14:51:27;;;;;;;2.75;2.30;;;;;;;;;;5012728;28;20214;-81
2022/06/18 14:54:21;;;;;;;2.50;2.30;;;;;;;;;;5006983;28;20310;-81
2022/06/18 14:57:19;;;;;;;1.90;1.70;;;;;;;;;;5012422;28;20628;-80
2022/06/18 15:00:19;;;;;;;1.80;1.70;;;;;;;;;;5001740;28;20595;-80
2022/06/18 15:02:51;;;;;;;2.15;1.77;;;;;;;;;;5011424;28;20292;-79
2022/06/18 15:05:24;;;;;;;1.85;1.75;;;;;;;;;;5013398;28;20245;-80
2022/06/18 15:07:51;;;;;;;2.15;2.03;;;;;;;;;;5016455;28;20237;-80
2022/06/18 15:10:23;;;;;;;2.38;2.17;;;;;;;;;;5016051;28;20287;-80
2022/06/18 15:12:53;;;;;;;2.42;2.22;;;;;;;;;;5014961;28;20258;-80
2022/06/18 15:15:27;;;;;;;2.20;2.03;;;;;;;;;;5017084;28;20201;-81
2022/06/18 15:18:12;;;;;;;2.45;1.90;;;;;;;;;;5014627;28;20210;-79
2022/06/18 15:20:51;;;;;;;2.30;1.90;;;;;;;;;;5016213;28;20205;-80
2022/06/18 15:23:36;;;;;;;3.63;2.08;;;;;;;;;;5015271;28;20243;-79
2022/06/18 15:26:09;;;;;;;2.60;1.90;;;;;;;;;;5016345;28;20209;-80
2022/06/18 15:28:42;;;;;;;2.28;1.60;;;;;;;;;;5016316;28;20290;-80
2022/06/18 15:31:33;;;;;;;3.20;1.95;;;;;;;;;;5016472;28;20281;-80
2022/06/18 15:34:14;;;;;;;2.35;2.15;;;;;;;;;;5015718;28;20260;-79
2022/06/18 15:36:42;;;;;;;4.35;2.65;;;;;;;;;;5015885;28;20198;-80
2022/06/18 15:39:21;;;;;;;3.63;1.88;;;;;;;;;;5016196;28;20644;-79
2022/06/18 15:41:51;;;;;;;1.40;1.30;;;;;;;;;;5014510;28;20272;-79